createdAt,value
2018-02-04T00:01:24.935Z,11.20
2018-02-04T00:03:52.425Z,12.40
2018-02-04T00:06:19.972Z,11.00
2018-02-04T00:08:47.494Z,11.63
2018-02-04T00:11:15.753Z,9.05
2018-02-04T00:13:44.012Z,9.40
2018-02-04T00:16:11.534Z,9.07
2018-02-04T00:18:39.034Z,22.15
2018-02-04T00:21:06.543Z,11.30
2018-02-04T00:23:34.079Z,16.25
2018-02-04T00:26:02.354Z,16.02
2018-02-04T00:28:30.609Z,10.70
2018-02-04T00:30:58.149Z,9.50
2018-02-04T00:33:25.644Z,7.50
2018-02-04T00:35:53.901Z,9.77
2018-02-04T00:38:21.417Z,7.43
2018-02-04T00:40:48.918Z,10.52
2018-02-04T00:43:16.404Z,9.23
2018-02-04T00:45:44.702Z,10.52
2018-02-04T00:48:12.206Z,10.23
2018-02-04T00:50:39.715Z,7.15
2018-02-04T00:53:07.237Z,7.20
2018-02-04T00:55:35.516Z,7.65
2018-02-04T00:58:03.792Z,8.65
2018-02-04T01:00:32.077Z,7.90
2018-02-04T01:03:00.352Z,12.27
2018-02-04T01:05:28.680Z,9.27
2018-02-04T01:07:56.188Z,7.07
2018-02-04T01:10:24.450Z,6.18
2018-02-04T01:12:52.718Z,5.95
2018-02-04T01:15:20.236Z,8.48
2018-02-04T01:17:47.733Z,5.85
2018-02-04T01:20:15.230Z,7.80
2018-02-04T01:22:42.740Z,4.47
2018-02-04T01:25:10.238Z,5.62
2018-02-04T01:27:37.728Z,5.07
2018-02-04T01:30:05.241Z,5.25
2018-02-04T01:32:33.505Z,6.47
2018-02-04T01:35:01.774Z,5.50
2018-02-04T01:37:29.297Z,8.65
2018-02-04T01:39:56.812Z,6.40
2018-02-04T01:42:25.081Z,6.53
2018-02-04T01:44:53.365Z,7.07
2018-02-04T01:47:21.631Z,6.60
2018-02-04T01:49:49.898Z,8.43
2018-02-04T01:52:17.418Z,6.57
2018-02-04T01:54:44.912Z,6.70
2018-02-04T01:57:12.397Z,6.32
2018-02-04T01:59:40.667Z,6.37
2018-02-04T02:02:08.925Z,5.85
2018-02-04T02:04:36.416Z,6.43
2018-02-04T02:07:03.943Z,7.85
2018-02-04T02:09:31.468Z,6.62
2018-02-04T02:11:58.978Z,7.20
2018-02-04T02:14:27.264Z,9.40
2018-02-04T02:16:55.529Z,8.00
2018-02-04T02:19:23.794Z,10.10
2018-02-04T02:21:51.318Z,11.43
2018-02-04T02:24:18.815Z,15.52
2018-02-04T02:26:47.095Z,9.43
2018-02-04T02:29:15.392Z,7.50
2018-02-04T02:31:42.894Z,6.15
2018-02-04T02:34:10.390Z,8.40
2018-02-04T02:36:38.682Z,10.07
2018-02-04T02:39:06.186Z,10.05
2018-02-04T02:41:33.698Z,12.10
2018-02-04T02:44:01.230Z,12.23
2018-02-04T02:46:28.720Z,14.48
2018-02-04T02:48:56.240Z,9.90
2018-02-04T02:51:23.770Z,8.85
2018-02-04T02:53:51.278Z,8.90
2018-02-04T02:56:19.558Z,12.73
2018-02-04T02:58:47.852Z,10.90
2018-02-04T03:01:15.372Z,10.57
2018-02-04T03:03:42.886Z,11.85
2018-02-04T03:06:10.440Z,10.20
2018-02-04T03:08:37.950Z,9.30
2018-02-04T03:11:05.471Z,10.52
2018-02-04T03:13:33.006Z,11.00
2018-02-04T03:16:00.514Z,10.27
2018-02-04T03:18:28.009Z,10.10
2018-02-04T03:20:55.538Z,9.05
2018-02-04T03:23:23.038Z,8.80
2018-02-04T03:25:50.560Z,10.63
2018-02-04T03:28:18.081Z,11.68
2018-02-04T03:30:45.582Z,9.57
2018-02-04T03:33:13.862Z,18.83
2018-02-04T03:35:42.168Z,11.32
2018-02-04T03:38:09.673Z,13.95
2018-02-04T03:40:37.192Z,11.27
2018-02-04T03:43:04.721Z,12.52
2018-02-04T03:45:32.993Z,12.07
2018-02-04T03:48:01.266Z,12.07
2018-02-04T03:50:29.570Z,10.52
2018-02-04T03:52:57.086Z,11.23
2018-02-04T03:55:24.605Z,13.48
2018-02-04T03:57:52.152Z,13.13
2018-02-04T04:00:19.663Z,12.40
2018-02-04T04:02:47.164Z,11.98
2018-02-04T04:05:14.699Z,12.15
2018-02-04T04:07:42.984Z,12.18
2018-02-04T04:10:11.268Z,13.35
2018-02-04T04:12:38.798Z,13.55
2018-02-04T04:15:06.305Z,12.73
2018-02-04T04:17:33.804Z,14.57
2018-02-04T04:20:01.338Z,12.55
2018-02-04T04:22:28.846Z,13.35
2018-02-04T04:24:57.108Z,11.68
2018-02-04T04:27:24.643Z,13.80
2018-02-04T04:29:52.145Z,10.75
2018-02-04T04:32:20.422Z,12.60
2018-02-04T04:34:48.728Z,19.62
2018-02-04T04:37:16.243Z,15.57
2018-02-04T04:39:44.514Z,16.00
2018-02-04T04:42:12.809Z,13.75
2018-02-04T04:44:41.086Z,16.55
2018-02-04T04:47:09.346Z,14.50
2018-02-04T04:49:36.872Z,13.18
2018-02-04T04:52:04.391Z,14.15
2018-02-04T04:54:31.915Z,14.25
2018-02-04T04:57:00.217Z,15.80
2018-02-04T04:59:28.494Z,13.35
2018-02-04T05:01:56.762Z,15.13
2018-02-04T05:04:25.043Z,13.18
2018-02-04T05:06:53.327Z,14.27
2018-02-04T05:09:20.832Z,16.08
2018-02-04T05:11:48.358Z,14.65
2018-02-04T05:14:15.871Z,15.68
2018-02-04T05:16:43.379Z,15.05
2018-02-04T05:19:10.901Z,12.52
2018-02-04T05:21:39.174Z,13.40
2018-02-04T05:24:07.446Z,10.27
2018-02-04T05:26:34.977Z,11.82
2018-02-04T05:29:02.472Z,12.73
2018-02-04T05:31:30.737Z,12.80
2018-02-04T05:33:58.279Z,18.98
2018-02-04T05:36:25.820Z,13.15
2018-02-04T05:38:53.293Z,12.63
2018-02-04T05:41:20.828Z,15.07
2018-02-04T05:43:48.329Z,10.27
2018-02-04T05:46:15.835Z,10.05
2018-02-04T05:48:43.365Z,11.32
2018-02-04T05:51:11.645Z,13.50
2018-02-04T05:53:39.933Z,12.50
2018-02-04T05:56:07.447Z,10.27
2018-02-04T05:58:34.945Z,13.10
2018-02-04T06:01:02.454Z,13.07
2018-02-04T06:03:29.995Z,12.45
2018-02-04T06:05:57.502Z,15.98
2018-02-04T06:08:25.790Z,15.02
2018-02-04T06:10:54.085Z,13.32
2018-02-04T06:13:21.583Z,15.88
2018-02-04T06:15:49.091Z,13.38
2018-02-04T06:18:16.631Z,15.95
2018-02-04T06:20:44.914Z,16.25
2018-02-04T06:23:13.690Z,14.98
2018-02-04T06:25:41.980Z,15.45
2018-02-04T06:28:10.263Z,15.82
2018-02-04T06:30:37.780Z,13.95
2018-02-04T06:33:05.297Z,17.87
2018-02-04T06:35:32.812Z,14.87
2018-02-04T06:38:01.105Z,13.57
2018-02-04T06:40:29.415Z,17.62
2018-02-04T06:42:56.925Z,17.40
2018-02-04T06:45:24.425Z,17.62
2018-02-04T06:47:51.958Z,16.95
2018-02-04T06:50:20.234Z,16.27
2018-02-04T06:52:48.520Z,18.02
2018-02-04T06:55:16.050Z,20.23
2018-02-04T06:57:43.612Z,20.37
2018-02-04T07:00:11.100Z,18.42
2018-02-04T07:02:38.644Z,17.52
2018-02-04T07:05:06.921Z,20.00
2018-02-04T07:07:35.211Z,18.20
2018-02-04T07:10:02.753Z,20.83
2018-02-04T07:12:31.039Z,21.27
2018-02-04T07:14:59.314Z,21.52
2018-02-04T07:17:27.605Z,20.15
2018-02-04T07:19:55.130Z,20.98
2018-02-04T07:22:22.634Z,19.58
2018-02-04T07:24:50.159Z,21.85
2018-02-04T07:27:18.431Z,22.15
2018-02-04T07:29:46.693Z,18.17
2018-02-04T07:32:14.226Z,20.25
2018-02-04T07:34:41.740Z,24.67
2018-02-04T07:37:10.014Z,26.15
2018-02-04T07:39:38.309Z,21.42
2018-02-04T07:42:05.801Z,24.73
2018-02-04T07:44:33.304Z,18.85
2018-02-04T07:47:01.588Z,22.52
2018-02-04T07:49:29.844Z,22.52
2018-02-04T07:51:58.126Z,23.62
2018-02-04T07:54:26.404Z,23.55
2018-02-04T07:56:54.683Z,25.23
2018-02-04T07:59:22.968Z,24.75
2018-02-04T08:01:50.489Z,21.33
2018-02-04T08:04:18.004Z,24.10
2018-02-04T08:06:45.496Z,22.27
2018-02-04T08:09:13.023Z,22.25
2018-02-04T08:11:40.513Z,20.67
2018-02-04T08:14:08.012Z,17.55
2018-02-04T08:16:36.306Z,21.90
2018-02-04T08:19:03.832Z,23.42
2018-02-04T08:21:32.114Z,19.25
2018-02-04T08:24:00.444Z,21.60
2018-02-04T08:26:27.953Z,18.87
2018-02-04T08:28:56.208Z,15.18
2018-02-04T08:31:23.736Z,18.25
2018-02-04T08:33:51.252Z,21.17
2018-02-04T08:36:18.792Z,13.70
2018-02-04T08:38:46.324Z,16.15
2018-02-04T08:41:13.825Z,13.88
2018-02-04T08:43:42.104Z,12.50
2018-02-04T08:46:10.391Z,13.55
2018-02-04T08:48:37.890Z,12.27
2018-02-04T08:51:05.395Z,11.15
2018-02-04T08:53:33.690Z,9.85
2018-02-04T08:56:01.204Z,9.70
2018-02-04T08:58:28.706Z,10.77
2018-02-04T09:00:56.229Z,9.63
2018-02-04T09:03:23.737Z,12.40
2018-02-04T09:05:51.238Z,8.48
2018-02-04T09:08:18.751Z,7.40
2018-02-04T09:10:46.249Z,8.93
2018-02-04T09:13:13.769Z,9.43
2018-02-04T09:15:41.297Z,12.27
2018-02-04T09:18:09.575Z,10.20
2018-02-04T09:20:37.829Z,9.30
2018-02-04T09:23:05.355Z,9.65
2018-02-04T09:25:32.862Z,8.07
2018-02-04T09:28:01.141Z,8.93
2018-02-04T09:30:29.438Z,9.68
2018-02-04T09:32:56.957Z,10.30
2018-02-04T09:35:24.458Z,10.77
2018-02-04T09:37:51.982Z,8.20
2018-02-04T09:40:20.249Z,11.70
2018-02-04T09:42:47.866Z,7.87
2018-02-04T09:45:15.397Z,7.97
2018-02-04T09:47:43.673Z,9.75
2018-02-04T09:50:11.187Z,7.57
2018-02-04T09:52:38.724Z,10.80
2018-02-04T09:55:06.213Z,9.52
2018-02-04T09:57:35.231Z,10.55
2018-02-04T10:00:03.535Z,9.10
2018-02-04T10:02:31.046Z,14.07
2018-02-04T10:04:58.559Z,11.25
2018-02-04T10:07:26.091Z,9.73
2018-02-04T10:09:54.357Z,8.05
2018-02-04T10:12:22.618Z,9.40
2018-02-04T10:14:50.146Z,11.82
2018-02-04T10:17:17.635Z,10.57
2018-02-04T10:19:45.129Z,12.40
2018-02-04T10:22:12.654Z,9.18
2018-02-04T10:24:40.148Z,9.30
2018-02-04T10:27:07.947Z,11.35
2018-02-04T10:29:35.475Z,13.48
2018-02-04T10:32:02.996Z,10.07
2018-02-04T10:34:31.284Z,10.13
2018-02-04T10:36:59.578Z,10.02
2018-02-04T10:39:27.133Z,10.25
2018-02-04T10:41:54.604Z,10.85
2018-02-04T10:44:22.244Z,7.95
2018-02-04T10:46:50.510Z,6.28
2018-02-04T10:49:18.764Z,6.15
2018-02-04T10:51:51.984Z,5.57
2018-02-04T10:54:20.291Z,7.95
2018-02-04T10:56:47.786Z,8.63
2018-02-04T10:59:15.847Z,6.90
2018-02-04T11:01:43.360Z,7.10
2018-02-04T11:04:10.877Z,7.30
2018-02-04T11:06:38.395Z,5.90
2018-02-04T11:09:05.904Z,11.70
2018-02-04T11:11:33.413Z,10.13
2018-02-04T11:14:00.942Z,12.75
2018-02-04T11:16:29.224Z,5.43
2018-02-04T11:18:57.508Z,8.25
2018-02-04T11:21:25.044Z,8.80
2018-02-04T11:23:53.309Z,9.85
2018-02-04T11:26:22.581Z,6.90
2018-02-04T11:28:50.118Z,9.15
2018-02-04T11:31:19.570Z,7.93
2018-02-04T11:33:47.080Z,9.07
2018-02-04T11:36:14.615Z,9.40
2018-02-04T11:38:42.886Z,6.97
2018-02-04T11:41:11.912Z,7.87
2018-02-04T11:43:39.441Z,8.30
2018-02-04T11:46:07.706Z,7.80
2018-02-04T11:48:35.974Z,8.68
2018-02-04T11:51:03.497Z,6.47
2018-02-04T11:53:30.984Z,6.20
2018-02-04T11:55:58.483Z,6.35
2018-02-04T11:58:25.997Z,5.60
2018-02-04T12:00:53.488Z,5.87
2018-02-04T12:03:21.763Z,5.75
2018-02-04T12:05:50.048Z,8.48
2018-02-04T12:08:17.542Z,6.90
2018-02-04T12:10:45.042Z,10.75
2018-02-04T12:13:13.324Z,5.85
2018-02-04T12:15:41.584Z,11.07
2018-02-04T12:18:09.100Z,7.95
2018-02-04T12:20:36.641Z,6.30
2018-02-04T12:23:04.146Z,4.78
2018-02-04T12:25:31.656Z,4.47
2018-02-04T12:27:59.191Z,5.65
2018-02-04T12:30:27.463Z,4.03
2018-02-04T12:32:55.720Z,4.70
2018-02-04T12:35:23.249Z,4.10
2018-02-04T12:37:50.737Z,3.65
2018-02-04T12:40:18.248Z,4.20
2018-02-04T12:42:46.777Z,4.82
2018-02-04T12:45:14.260Z,3.37
2018-02-04T12:47:42.522Z,7.10
2018-02-04T12:50:10.046Z,3.58
2018-02-04T12:52:37.690Z,4.25
2018-02-04T12:55:05.186Z,4.95
2018-02-04T12:57:32.710Z,4.85
2018-02-04T13:00:00.205Z,5.20
2018-02-04T13:02:27.705Z,4.80
2018-02-04T13:04:55.220Z,4.87
2018-02-04T13:07:22.712Z,4.45
2018-02-04T13:09:50.955Z,5.45
2018-02-04T13:12:19.258Z,5.30
2018-02-04T13:14:47.517Z,4.72
2018-02-04T13:17:15.005Z,3.55
2018-02-04T13:19:43.305Z,3.83
2018-02-04T13:22:10.791Z,3.53
2018-02-04T13:24:38.290Z,3.50
2018-02-04T13:27:06.573Z,3.92
2018-02-04T13:29:34.824Z,4.53
2018-02-04T13:32:02.313Z,4.78
2018-02-04T13:34:29.834Z,4.18
2018-02-04T13:36:57.334Z,3.58
2018-02-04T13:39:24.847Z,3.50
2018-02-04T13:41:52.373Z,6.05
2018-02-04T13:44:19.871Z,5.25
2018-02-04T13:46:47.376Z,6.15
2018-02-04T13:49:14.902Z,5.05
2018-02-04T13:51:43.157Z,4.47
2018-02-04T13:54:10.650Z,5.15
2018-02-04T13:56:38.178Z,5.37
2018-02-04T13:59:05.669Z,5.30
2018-02-04T14:01:33.166Z,4.25
2018-02-04T14:04:00.701Z,4.85
2018-02-04T14:06:28.203Z,3.92
2018-02-04T14:08:55.698Z,5.12
2018-02-04T14:11:23.984Z,4.37
2018-02-04T14:13:51.481Z,5.75
2018-02-04T14:16:18.980Z,6.40
2018-02-04T14:18:47.256Z,4.57
2018-02-04T14:21:15.522Z,5.35
2018-02-04T14:23:43.028Z,5.28
2018-02-04T14:26:10.549Z,4.55
2018-02-04T14:28:38.832Z,8.55
2018-02-04T14:31:07.101Z,6.43
2018-02-04T14:33:35.389Z,5.05
2018-02-04T14:36:02.901Z,7.00
2018-02-04T14:38:30.401Z,5.85
2018-02-04T14:40:58.690Z,5.95
2018-02-04T14:43:26.207Z,6.25
2018-02-04T14:45:53.711Z,5.97
2018-02-04T14:48:21.224Z,7.03
2018-02-04T14:50:48.742Z,5.90
2018-02-04T14:53:16.308Z,15.80
2018-02-04T14:55:43.830Z,7.72
2018-02-04T14:58:11.351Z,5.68
2018-02-04T15:00:38.850Z,4.60
2018-02-04T15:03:07.135Z,4.50
2018-02-04T15:05:34.639Z,11.30
2018-02-04T15:08:02.152Z,8.20
2018-02-04T15:10:29.698Z,4.30
2018-02-04T15:12:57.965Z,9.93
2018-02-04T15:15:26.249Z,11.20
2018-02-04T15:17:54.534Z,7.65
2018-02-04T15:20:22.047Z,5.50
2018-02-04T15:22:49.546Z,7.40
2018-02-04T15:25:17.845Z,6.05
2018-02-04T15:27:45.350Z,15.93
2018-02-04T15:30:12.850Z,11.00
2018-02-04T15:32:40.383Z,9.57
2018-02-04T15:35:08.663Z,8.02
2018-02-04T15:37:36.929Z,3.87
2018-02-04T15:40:04.459Z,4.30
2018-02-04T15:42:31.973Z,4.45
2018-02-04T15:44:59.932Z,5.70
2018-02-04T15:47:28.234Z,5.93
2018-02-04T15:49:55.740Z,4.82
2018-02-04T15:52:23.224Z,5.80
2018-02-04T15:54:51.500Z,4.35
2018-02-04T15:57:19.763Z,5.15
2018-02-04T15:59:47.252Z,5.20
2018-02-04T16:02:14.797Z,3.62
2018-02-04T16:04:43.061Z,4.45
2018-02-04T16:07:11.316Z,4.65
2018-02-04T16:09:38.848Z,5.10
2018-02-04T16:12:06.346Z,5.95
2018-02-04T16:14:33.846Z,6.15
2018-02-04T16:17:01.383Z,4.22
2018-02-04T16:19:29.654Z,8.45
2018-02-04T16:21:57.926Z,4.45
2018-02-04T16:24:26.238Z,4.87
2018-02-04T16:26:53.772Z,6.93
2018-02-04T16:29:22.027Z,6.07
2018-02-04T16:31:49.546Z,4.15
2018-02-04T16:34:17.041Z,9.32
2018-02-04T16:36:44.538Z,5.70
2018-02-04T16:39:12.057Z,7.62
2018-02-04T16:41:39.558Z,4.20
2018-02-04T16:44:07.058Z,5.30
2018-02-04T16:46:34.563Z,5.68
2018-02-04T16:49:02.057Z,6.32
2018-02-04T16:51:29.566Z,4.82
2018-02-04T16:53:57.856Z,5.65
2018-02-04T16:56:32.454Z,4.68
2018-02-04T16:59:00.746Z,7.05
2018-02-04T17:01:28.568Z,5.45
2018-02-04T17:03:56.201Z,7.47
2018-02-04T17:06:24.745Z,8.30
2018-02-04T17:08:53.006Z,7.05
2018-02-04T17:11:20.506Z,6.18
2018-02-04T17:13:48.029Z,8.10
2018-02-04T17:16:15.526Z,7.78
2018-02-04T17:18:43.012Z,5.85
2018-02-04T17:21:10.537Z,7.10
2018-02-04T17:23:38.100Z,6.25
2018-02-04T17:26:05.568Z,5.70
2018-02-04T17:28:33.076Z,8.50
2018-02-04T17:31:00.592Z,8.50
2018-02-04T17:33:28.095Z,8.35
2018-02-04T17:35:55.627Z,8.60
2018-02-04T17:38:23.120Z,7.62
2018-02-04T17:40:51.379Z,7.28
2018-02-04T17:43:19.034Z,9.90
2018-02-04T17:45:46.528Z,6.65
2018-02-04T17:48:14.793Z,9.63
2018-02-04T17:50:43.095Z,10.95
2018-02-04T17:53:10.606Z,10.77
2018-02-04T17:55:38.120Z,8.05
2018-02-04T17:58:05.664Z,13.55
2018-02-04T18:00:33.156Z,11.20
2018-02-04T18:03:00.658Z,10.60
2018-02-04T18:05:28.966Z,9.30
2018-02-04T18:07:56.487Z,11.80
2018-02-04T18:10:23.980Z,9.38
2018-02-04T18:12:51.511Z,12.48
2018-02-04T18:15:19.788Z,11.85
2018-02-04T18:17:48.076Z,10.63
2018-02-04T18:20:16.360Z,12.77
2018-02-04T18:22:43.856Z,13.45
2018-02-04T18:25:11.357Z,10.45
2018-02-04T18:27:39.664Z,11.07
2018-02-04T18:30:07.181Z,15.20
2018-02-04T18:32:34.699Z,11.45
2018-02-04T18:35:02.229Z,10.80
2018-02-04T18:37:29.752Z,15.63
2018-02-04T18:39:57.249Z,16.10
2018-02-04T18:42:24.783Z,12.18
2018-02-04T18:44:53.066Z,13.95
2018-02-04T18:47:21.349Z,15.57
2018-02-04T18:49:49.662Z,14.57
2018-02-04T18:52:17.168Z,14.38
2018-02-04T18:54:45.432Z,16.23
2018-02-04T18:57:12.983Z,15.15
2018-02-04T18:59:40.494Z,15.20
2018-02-04T19:02:08.010Z,13.45
2018-02-04T19:04:35.542Z,17.77
2018-02-04T19:07:03.053Z,15.85
2018-02-04T19:09:31.335Z,17.40
2018-02-04T19:11:59.625Z,15.85
2018-02-04T19:14:27.125Z,15.43
2018-02-04T19:16:54.628Z,20.20
2018-02-04T19:19:22.927Z,17.90
2018-02-04T19:21:50.438Z,16.58
2018-02-04T19:24:17.932Z,16.48
2018-02-04T19:26:45.453Z,21.25
2018-02-04T19:29:12.961Z,26.12
2018-02-04T19:31:40.488Z,20.20
2018-02-04T19:34:08.779Z,18.23
2018-02-04T19:36:36.306Z,17.70
2018-02-04T19:39:03.818Z,18.30
2018-02-04T19:41:31.349Z,22.20
2018-02-04T19:43:59.622Z,18.15
2018-02-04T19:46:27.898Z,17.52
2018-02-04T19:48:56.203Z,20.70
2018-02-04T19:51:23.704Z,18.42
2018-02-04T19:53:51.205Z,17.60
2018-02-04T19:56:18.752Z,21.15
2018-02-04T19:58:46.274Z,18.60
2018-02-04T20:01:13.791Z,23.40
2018-02-04T20:03:41.322Z,24.10
2018-02-04T20:06:09.620Z,23.05
2018-02-04T20:08:37.133Z,21.37
2018-02-04T20:11:04.670Z,23.70
2018-02-04T20:13:32.178Z,23.70
2018-02-04T20:16:00.449Z,21.75
2018-02-04T20:18:28.793Z,19.25
2018-02-04T20:20:56.299Z,25.30
2018-02-04T20:23:23.824Z,21.85
2018-02-04T20:25:51.371Z,21.83
2018-02-04T20:28:18.882Z,28.77
2018-02-04T20:30:46.390Z,20.62
2018-02-04T20:33:21.886Z,28.23
2018-02-04T20:35:49.389Z,23.65
2018-02-04T20:38:16.938Z,24.60
2018-02-04T20:40:44.468Z,24.27
2018-02-04T20:43:11.988Z,23.15
2018-02-04T20:45:40.680Z,27.70
2018-02-04T20:48:09.114Z,21.52
2018-02-04T20:50:36.612Z,25.92
2018-02-04T20:53:04.113Z,25.92
2018-02-04T20:55:31.636Z,23.42
2018-02-04T20:58:01.375Z,20.10
2018-02-04T21:00:29.000Z,24.27
2018-02-04T21:02:57.318Z,28.52
2018-02-04T21:05:24.850Z,26.62
2018-02-04T21:07:53.118Z,24.02
2018-02-04T21:10:21.418Z,26.92
2018-02-04T21:12:48.930Z,25.90
2018-02-04T21:15:16.451Z,25.70
2018-02-04T21:17:43.991Z,23.45
2018-02-04T21:20:11.493Z,21.85
2018-02-04T21:22:39.001Z,25.40
2018-02-04T21:25:07.312Z,22.52
2018-02-04T21:27:34.822Z,22.60
2018-02-04T21:30:03.106Z,22.40
2018-02-04T21:32:31.402Z,23.48
2018-02-04T21:34:58.913Z,22.00
2018-02-04T21:37:26.427Z,28.65
2018-02-04T21:39:53.958Z,22.67
2018-02-04T21:42:22.223Z,27.65
2018-02-04T21:44:49.730Z,26.60
2018-02-04T21:47:17.262Z,25.80
2018-02-04T21:49:44.788Z,21.83
2018-02-04T21:52:12.303Z,22.55
2018-02-04T21:54:39.838Z,22.17
2018-02-04T21:57:07.357Z,24.90
2018-02-04T21:59:34.860Z,22.87
2018-02-04T22:02:02.389Z,19.52
2018-02-04T22:04:29.901Z,27.92
2018-02-04T22:06:57.410Z,23.30
2018-02-04T22:09:25.701Z,21.42
2018-02-04T22:11:53.984Z,22.95
2018-02-04T22:14:21.494Z,21.37
2018-02-04T22:16:49.033Z,21.85
2018-02-04T22:19:16.536Z,22.80
2018-02-04T22:21:44.814Z,26.25
2018-02-04T22:24:13.114Z,22.92
2018-02-04T22:26:40.636Z,23.05
2018-02-04T22:29:08.146Z,26.42
2018-02-04T22:31:35.678Z,21.20
2018-02-04T22:34:03.953Z,22.10
2018-02-04T22:36:32.230Z,20.70
2018-02-04T22:39:00.544Z,19.62
2018-02-04T22:41:28.054Z,22.40
2018-02-04T22:43:56.319Z,20.10
2018-02-04T22:46:23.850Z,25.02
2018-02-04T22:48:51.358Z,21.83
2018-02-04T22:51:19.628Z,21.80
2018-02-04T22:53:47.943Z,22.08
2018-02-04T22:56:15.463Z,20.67
2018-02-04T22:58:43.752Z,23.90
2018-02-04T23:01:12.024Z,22.87
2018-02-04T23:03:40.292Z,23.73
2018-02-04T23:06:08.566Z,24.70
2018-02-04T23:08:36.866Z,21.45
2018-02-04T23:11:04.387Z,18.10
2018-02-04T23:13:31.900Z,23.77
2018-02-04T23:15:59.429Z,21.35
2018-02-04T23:18:27.706Z,23.25
2018-02-04T23:20:55.990Z,22.20
2018-02-04T23:23:23.526Z,21.98
2018-02-04T23:25:51.824Z,23.55
2018-02-04T23:28:20.097Z,23.67
2018-02-04T23:30:48.401Z,23.75
2018-02-04T23:33:15.911Z,21.95
2018-02-04T23:35:43.431Z,19.37
2018-02-04T23:38:10.956Z,20.65
2018-02-04T23:40:38.489Z,21.73
2018-02-04T23:43:05.996Z,19.85
2018-02-04T23:45:33.526Z,22.33
2018-02-04T23:48:01.800Z,21.92
2018-02-04T23:50:30.077Z,21.67
2018-02-04T23:52:58.365Z,23.60
2018-02-04T23:55:25.874Z,19.10
2018-02-04T23:57:53.398Z,30.40
